Terminal Aerodrome Forecast
Issued by NWS Wakefield, VA

Home | Current Version | Previous Version | Text Only | Print | Product List | Glossary On
Versions: 1 2 3 4 5 6 7 8 9 10 11 12 13 14 15 16 17 18 19 20
000
FTUS41 KAKQ 222300
TAFSBY
TAF
KSBY 222339Z 2300/2324 08005KT P6SM OVC025
     FM230300 04004KT 5SM BR OVC015
     FM230700 05003KT 2SM BR OVC008
     FM231400 09006KT P6SM OVC015
     FM231900 07010KT P6SM BKN040=

USA.gov is the U.S. government's official web portal to all federal, state and local government web resources and services.